sensor_id;sensor_type;location;lat;lon;timestamp;pressure;altitude;pressure_sealevel;temperature;humidity
73516;BME280;61763;51.416;5.442;2022-09-28T00:00:26;99543.38;;;6.01;100.00
73516;BME280;61763;51.416;5.442;2022-09-28T00:02:53;99536.66;;;6.09;100.00
73516;BME280;61763;51.416;5.442;2022-09-28T00:05:22;99544.84;;;6.06;100.00
73516;BME280;61763;51.416;5.442;2022-09-28T00:07:53;99548.81;;;5.99;100.00
73516;BME280;61763;51.416;5.442;2022-09-28T00:10:20;99541.78;;;5.96;100.00
73516;BME280;61763;51.416;5.442;2022-09-28T00:12:49;99539.91;;;5.99;100.00
73516;BME280;61763;51.416;5.442;2022-09-28T00:15:15;99539.06;;;5.98;100.00
73516;BME280;61763;51.416;5.442;2022-09-28T00:17:41;99531.16;;;6.12;100.00
73516;BME280;61763;51.416;5.442;2022-09-28T00:20:09;99546.84;;;6.20;100.00
73516;BME280;61763;51.416;5.442;2022-09-28T00:22:35;99545.66;;;6.26;100.00
73516;BME280;61763;51.416;5.442;2022-09-28T00:25:01;99549.72;;;6.33;100.00
73516;BME280;61763;51.416;5.442;2022-09-28T00:27:26;99545.22;;;6.34;100.00
73516;BME280;61763;51.416;5.442;2022-09-28T00:29:51;99539.69;;;6.37;100.00
73516;BME280;61763;51.416;5.442;2022-09-28T00:32:17;99546.00;;;6.36;100.00
73516;BME280;61763;51.416;5.442;2022-09-28T00:34:43;99542.94;;;6.43;100.00
73516;BME280;61763;51.416;5.442;2022-09-28T00:37:13;99536.94;;;6.38;100.00
73516;BME280;61763;51.416;5.442;2022-09-28T00:39:39;99539.44;;;6.41;100.00
73516;BME280;61763;51.416;5.442;2022-09-28T00:42:14;99531.16;;;6.46;100.00
73516;BME280;61763;51.416;5.442;2022-09-28T00:49:56;99531.00;;;6.65;100.00
73516;BME280;61763;51.416;5.442;2022-09-28T00:52:41;99520.47;;;6.62;100.00
73516;BME280;61763;51.416;5.442;2022-09-28T00:55:10;99515.34;;;6.57;100.00
73516;BME280;61763;51.416;5.442;2022-09-28T00:57:39;99516.66;;;6.66;100.00
73516;BME280;61763;51.416;5.442;2022-09-28T01:00:06;99516.28;;;6.56;100.00
73516;BME280;61763;51.416;5.442;2022-09-28T01:02:32;99520.09;;;6.52;100.00
73516;BME280;61763;51.416;5.442;2022-09-28T01:04:58;99518.03;;;6.57;100.00
73516;BME280;61763;51.416;5.442;2022-09-28T01:07:24;99510.19;;;6.70;100.00
73516;BME280;61763;51.416;5.442;2022-09-28T01:09:51;99503.09;;;6.69;100.00
73516;BME280;61763;51.416;5.442;2022-09-28T01:12:18;99509.03;;;6.74;100.00
73516;BME280;61763;51.416;5.442;2022-09-28T01:14:44;99503.44;;;6.79;100.00
73516;BME280;61763;51.416;5.442;2022-09-28T01:17:25;99492.19;;;6.72;100.00
73516;BME280;61763;51.416;5.442;2022-09-28T01:20:25;99504.03;;;6.68;100.00
73516;BME280;61763;51.416;5.442;2022-09-28T01:23:16;99506.31;;;6.76;100.00
73516;BME280;61763;51.416;5.442;2022-09-28T01:28:53;99506.34;;;6.74;100.00
73516;BME280;61763;51.416;5.442;2022-09-28T01:31:30;99509.75;;;6.78;100.00
73516;BME280;61763;51.416;5.442;2022-09-28T01:34:02;99506.97;;;6.79;100.00
73516;BME280;61763;51.416;5.442;2022-09-28T01:36:33;99510.13;;;6.88;100.00
73516;BME280;61763;51.416;5.442;2022-09-28T01:39:08;99511.72;;;6.90;100.00
73516;BME280;61763;51.416;5.442;2022-09-28T01:41:37;99517.09;;;6.90;100.00
73516;BME280;61763;51.416;5.442;2022-09-28T01:44:10;99517.72;;;6.95;100.00
73516;BME280;61763;51.416;5.442;2022-09-28T01:46:44;99517.63;;;6.97;100.00
73516;BME280;61763;51.416;5.442;2022-09-28T01:52:00;99528.78;;;7.05;100.00
73516;BME280;61763;51.416;5.442;2022-09-28T01:54:47;99520.56;;;7.08;100.00
73516;BME280;61763;51.416;5.442;2022-09-28T01:57:23;99527.81;;;7.06;100.00
73516;BME280;61763;51.416;5.442;2022-09-28T02:00:12;99518.94;;;7.06;100.00
73516;BME280;61763;51.416;5.442;2022-09-28T02:02:48;99522.38;;;7.08;100.00
73516;BME280;61763;51.416;5.442;2022-09-28T02:05:22;99512.75;;;7.04;100.00
73516;BME280;61763;51.416;5.442;2022-09-28T02:08:07;99516.59;;;6.99;100.00
73516;BME280;61763;51.416;5.442;2022-09-28T02:10:43;99516.78;;;6.96;100.00
73516;BME280;61763;51.416;5.442;2022-09-28T02:13:18;99508.19;;;7.06;100.00
73516;BME280;61763;51.416;5.442;2022-09-28T02:15:55;99518.47;;;6.97;100.00
73516;BME280;61763;51.416;5.442;2022-09-28T02:18:23;99515.88;;;6.96;100.00
73516;BME280;61763;51.416;5.442;2022-09-28T02:20:59;99516.25;;;6.90;100.00
73516;BME280;61763;51.416;5.442;2022-09-28T02:23:27;99512.53;;;6.92;100.00
73516;BME280;61763;51.416;5.442;2022-09-28T02:26:02;99520.66;;;6.91;100.00
73516;BME280;61763;51.416;5.442;2022-09-28T02:28:29;99518.38;;;6.83;100.00
73516;BME280;61763;51.416;5.442;2022-09-28T02:30:55;99517.03;;;6.76;100.00
73516;BME280;61763;51.416;5.442;2022-09-28T02:33:37;99518.50;;;6.65;100.00
73516;BME280;61763;51.416;5.442;2022-09-28T02:36:04;99523.31;;;6.59;100.00
73516;BME280;61763;51.416;5.442;2022-09-28T02:38:30;99524.34;;;6.56;100.00
73516;BME280;61763;51.416;5.442;2022-09-28T02:41:02;99524.59;;;6.52;100.00
73516;BME280;61763;51.416;5.442;2022-09-28T02:49:48;99528.34;;;6.31;100.00
73516;BME280;61763;51.416;5.442;2022-09-28T02:52:28;99524.97;;;6.28;100.00
73516;BME280;61763;51.416;5.442;2022-09-28T03:00:31;99521.81;;;6.04;100.00
73516;BME280;61763;51.416;5.442;2022-09-28T03:05:57;99529.28;;;5.97;100.00
73516;BME280;61763;51.416;5.442;2022-09-28T03:10:55;99534.22;;;5.87;100.00
73516;BME280;61763;51.416;5.442;2022-09-28T03:13:24;99529.59;;;6.08;100.00
73516;BME280;61763;51.416;5.442;2022-09-28T03:15:50;99529.19;;;5.99;100.00
73516;BME280;61763;51.416;5.442;2022-09-28T03:18:15;99540.97;;;5.94;100.00
73516;BME280;61763;51.416;5.442;2022-09-28T03:20:41;99542.03;;;5.92;100.00
73516;BME280;61763;51.416;5.442;2022-09-28T03:23:06;99531.25;;;5.93;100.00
73516;BME280;61763;51.416;5.442;2022-09-28T03:25:32;99532.16;;;5.92;100.00
73516;BME280;61763;51.416;5.442;2022-09-28T03:27:57;99530.94;;;6.00;100.00
73516;BME280;61763;51.416;5.442;2022-09-28T03:30:22;99532.59;;;6.02;100.00
73516;BME280;61763;51.416;5.442;2022-09-28T03:32:59;99531.56;;;6.05;100.00
73516;BME280;61763;51.416;5.442;2022-09-28T03:35:25;99532.44;;;6.05;100.00
73516;BME280;61763;51.416;5.442;2022-09-28T03:37:53;99530.53;;;6.07;100.00
73516;BME280;61763;51.416;5.442;2022-09-28T03:40:19;99532.19;;;6.10;100.00
73516;BME280;61763;51.416;5.442;2022-09-28T03:42:44;99521.22;;;6.14;100.00
73516;BME280;61763;51.416;5.442;2022-09-28T03:45:10;99531.59;;;6.21;100.00
73516;BME280;61763;51.416;5.442;2022-09-28T03:47:36;99532.25;;;6.26;100.00
73516;BME280;61763;51.416;5.442;2022-09-28T03:50:01;99532.09;;;6.29;100.00
73516;BME280;61763;51.416;5.442;2022-09-28T03:52:26;99535.28;;;6.36;100.00
73516;BME280;61763;51.416;5.442;2022-09-28T03:54:52;99538.84;;;6.36;100.00
73516;BME280;61763;51.416;5.442;2022-09-28T03:57:17;99536.50;;;6.46;100.00
73516;BME280;61763;51.416;5.442;2022-09-28T03:59:43;99536.00;;;6.39;100.00
73516;BME280;61763;51.416;5.442;2022-09-28T04:02:08;99538.84;;;6.36;100.00
73516;BME280;61763;51.416;5.442;2022-09-28T04:04:33;99534.84;;;6.27;100.00
73516;BME280;61763;51.416;5.442;2022-09-28T04:06:59;99539.56;;;6.22;100.00
73516;BME280;61763;51.416;5.442;2022-09-28T04:09:24;99532.88;;;6.13;100.00
73516;BME280;61763;51.416;5.442;2022-09-28T04:11:49;99527.78;;;6.09;100.00
73516;BME280;61763;51.416;5.442;2022-09-28T04:14:15;99527.69;;;6.10;100.00
73516;BME280;61763;51.416;5.442;2022-09-28T04:16:40;99527.78;;;6.09;100.00
73516;BME280;61763;51.416;5.442;2022-09-28T04:19:06;99530.13;;;6.15;100.00
73516;BME280;61763;51.416;5.442;2022-09-28T04:21:31;99534.59;;;6.32;100.00
73516;BME280;61763;51.416;5.442;2022-09-28T04:23:56;99542.78;;;6.29;100.00
73516;BME280;61763;51.416;5.442;2022-09-28T04:26:24;99542.88;;;6.27;100.00
73516;BME280;61763;51.416;5.442;2022-09-28T04:28:51;99546.50;;;6.26;100.00
73516;BME280;61763;51.416;5.442;2022-09-28T04:31:53;99540.19;;;6.27;100.00
73516;BME280;61763;51.416;5.442;2022-09-28T04:34:21;99539.06;;;6.31;100.00
73516;BME280;61763;51.416;5.442;2022-09-28T04:36:47;99533.41;;;6.38;100.00
73516;BME280;61763;51.416;5.442;2022-09-28T04:39:14;99527.97;;;6.39;100.00
73516;BME280;61763;51.416;5.442;2022-09-28T04:41:40;99530.63;;;6.39;100.00
73516;BME280;61763;51.416;5.442;2022-09-28T04:44:06;99532.94;;;6.29;100.00
73516;BME280;61763;51.416;5.442;2022-09-28T04:46:31;99528.06;;;6.20;100.00
73516;BME280;61763;51.416;5.442;2022-09-28T04:48:57;99527.19;;;6.20;100.00
73516;BME280;61763;51.416;5.442;2022-09-28T04:51:22;99530.75;;;6.20;100.00
73516;BME280;61763;51.416;5.442;2022-09-28T04:53:48;99534.84;;;6.27;100.00
73516;BME280;61763;51.416;5.442;2022-09-28T04:56:15;99539.41;;;6.25;100.00
73516;BME280;61763;51.416;5.442;2022-09-28T04:58:42;99529.94;;;6.18;100.00
73516;BME280;61763;51.416;5.442;2022-09-28T05:01:13;99542.91;;;6.10;100.00
73516;BME280;61763;51.416;5.442;2022-09-28T05:03:39;99542.44;;;6.02;100.00
73516;BME280;61763;51.416;5.442;2022-09-28T05:06:05;99540.13;;;5.94;100.00
73516;BME280;61763;51.416;5.442;2022-09-28T05:08:33;99544.16;;;5.85;100.00
73516;BME280;61763;51.416;5.442;2022-09-28T05:11:01;99535.25;;;5.85;100.00
73516;BME280;61763;51.416;5.442;2022-09-28T05:13:28;99531.69;;;5.84;100.00
73516;BME280;61763;51.416;5.442;2022-09-28T05:15:55;99549.41;;;5.69;100.00
73516;BME280;61763;51.416;5.442;2022-09-28T05:18:21;99551.84;;;5.56;100.00
73516;BME280;61763;51.416;5.442;2022-09-28T05:20:46;99547.81;;;5.48;100.00
73516;BME280;61763;51.416;5.442;2022-09-28T05:23:12;99548.28;;;5.38;100.00
73516;BME280;61763;51.416;5.442;2022-09-28T05:25:38;99555.59;;;5.35;100.00
73516;BME280;61763;51.416;5.442;2022-09-28T05:28:04;99556.97;;;5.43;100.00
73516;BME280;61763;51.416;5.442;2022-09-28T05:30:30;99562.25;;;5.45;100.00
73516;BME280;61763;51.416;5.442;2022-09-28T05:32:55;99554.97;;;5.47;100.00
73516;BME280;61763;51.416;5.442;2022-09-28T05:35:21;99555.47;;;5.55;100.00
73516;BME280;61763;51.416;5.442;2022-09-28T05:37:46;99560.19;;;5.50;100.00
73516;BME280;61763;51.416;5.442;2022-09-28T05:40:12;99555.31;;;5.58;100.00
73516;BME280;61763;51.416;5.442;2022-09-28T05:42:38;99556.44;;;5.72;100.00
73516;BME280;61763;51.416;5.442;2022-09-28T05:45:04;99549.34;;;5.71;100.00
73516;BME280;61763;51.416;5.442;2022-09-28T05:47:35;99555.41;;;5.74;100.00
73516;BME280;61763;51.416;5.442;2022-09-28T05:50:01;99557.78;;;5.81;100.00
73516;BME280;61763;51.416;5.442;2022-09-28T05:52:26;99550.28;;;5.87;100.00
73516;BME280;61763;51.416;5.442;2022-09-28T05:54:51;99553.59;;;5.92;100.00
73516;BME280;61763;51.416;5.442;2022-09-28T05:57:17;99551.03;;;6.08;100.00
73516;BME280;61763;51.416;5.442;2022-09-28T05:59:42;99550.31;;;6.05;100.00
73516;BME280;61763;51.416;5.442;2022-09-28T06:02:09;99556.13;;;6.13;100.00
73516;BME280;61763;51.416;5.442;2022-09-28T06:04:34;99557.16;;;6.10;100.00
73516;BME280;61763;51.416;5.442;2022-09-28T06:07:00;99566.69;;;6.16;100.00
73516;BME280;61763;51.416;5.442;2022-09-28T06:09:25;99565.09;;;6.12;100.00
73516;BME280;61763;51.416;5.442;2022-09-28T06:11:51;99568.09;;;6.23;100.00
73516;BME280;61763;51.416;5.442;2022-09-28T06:14:17;99568.50;;;6.16;100.00
73516;BME280;61763;51.416;5.442;2022-09-28T06:16:43;99571.41;;;6.11;100.00
73516;BME280;61763;51.416;5.442;2022-09-28T06:19:09;99574.31;;;6.06;100.00
73516;BME280;61763;51.416;5.442;2022-09-28T06:21:35;99574.88;;;6.13;100.00
73516;BME280;61763;51.416;5.442;2022-09-28T06:24:02;99581.41;;;6.07;100.00
73516;BME280;61763;51.416;5.442;2022-09-28T06:26:27;99582.28;;;6.08;100.00
73516;BME280;61763;51.416;5.442;2022-09-28T06:28:53;99582.44;;;6.05;100.00
73516;BME280;61763;51.416;5.442;2022-09-28T06:31:18;99585.69;;;6.11;100.00
73516;BME280;61763;51.416;5.442;2022-09-28T06:33:48;99589.53;;;6.06;100.00
73516;BME280;61763;51.416;5.442;2022-09-28T06:36:14;99591.13;;;6.10;100.00
73516;BME280;61763;51.416;5.442;2022-09-28T06:38:40;99586.38;;;6.15;100.00
73516;BME280;61763;51.416;5.442;2022-09-28T06:41:06;99589.19;;;6.29;100.00
73516;BME280;61763;51.416;5.442;2022-09-28T06:43:32;99585.94;;;6.40;100.00
73516;BME280;61763;51.416;5.442;2022-09-28T06:46:00;99589.34;;;6.44;100.00
73516;BME280;61763;51.416;5.442;2022-09-28T06:48:27;99596.03;;;6.53;100.00
73516;BME280;61763;51.416;5.442;2022-09-28T06:50:52;99606.06;;;6.65;100.00
73516;BME280;61763;51.416;5.442;2022-09-28T06:53:18;99598.31;;;6.76;100.00
73516;BME280;61763;51.416;5.442;2022-09-28T06:55:45;99597.13;;;6.82;100.00
73516;BME280;61763;51.416;5.442;2022-09-28T06:58:16;99598.75;;;6.84;100.00
73516;BME280;61763;51.416;5.442;2022-09-28T07:00:44;99600.25;;;6.90;100.00
73516;BME280;61763;51.416;5.442;2022-09-28T07:03:11;99600.44;;;7.03;100.00
73516;BME280;61763;51.416;5.442;2022-09-28T07:05:40;99605.44;;;6.93;100.00
73516;BME280;61763;51.416;5.442;2022-09-28T07:08:06;99612.53;;;6.94;100.00
73516;BME280;61763;51.416;5.442;2022-09-28T07:10:32;99612.03;;;7.04;100.00
73516;BME280;61763;51.416;5.442;2022-09-28T07:13:00;99610.16;;;7.22;100.00
73516;BME280;61763;51.416;5.442;2022-09-28T07:15:30;99620.44;;;7.29;100.00
73516;BME280;61763;51.416;5.442;2022-09-28T07:17:57;99610.28;;;7.34;100.00
73516;BME280;61763;51.416;5.442;2022-09-28T07:20:23;99619.56;;;7.61;100.00
73516;BME280;61763;51.416;5.442;2022-09-28T07:22:56;99617.38;;;7.67;100.00
73516;BME280;61763;51.416;5.442;2022-09-28T07:25:23;99615.44;;;7.85;100.00
73516;BME280;61763;51.416;5.442;2022-09-28T07:27:50;99616.16;;;8.03;100.00
73516;BME280;61763;51.416;5.442;2022-09-28T07:30:16;99614.69;;;8.28;100.00
73516;BME280;61763;51.416;5.442;2022-09-28T07:32:44;99625.25;;;8.47;100.00
73516;BME280;61763;51.416;5.442;2022-09-28T07:35:09;99615.06;;;8.67;100.00
73516;BME280;61763;51.416;5.442;2022-09-28T07:37:35;99619.56;;;8.52;100.00
73516;BME280;61763;51.416;5.442;2022-09-28T07:40:03;99616.69;;;8.55;100.00
73516;BME280;61763;51.416;5.442;2022-09-28T07:42:47;99622.75;;;8.44;100.00
73516;BME280;61763;51.416;5.442;2022-09-28T07:45:13;99617.44;;;8.42;100.00
73516;BME280;61763;51.416;5.442;2022-09-28T07:47:38;99628.50;;;8.52;100.00
73516;BME280;61763;51.416;5.442;2022-09-28T07:50:04;99627.63;;;8.52;100.00
73516;BME280;61763;51.416;5.442;2022-09-28T07:52:30;99623.72;;;8.72;100.00
73516;BME280;61763;51.416;5.442;2022-09-28T07:54:55;99629.41;;;8.67;100.00
73516;BME280;61763;51.416;5.442;2022-09-28T07:57:22;99625.25;;;8.90;100.00
73516;BME280;61763;51.416;5.442;2022-09-28T07:59:48;99633.81;;;8.97;100.00
73516;BME280;61763;51.416;5.442;2022-09-28T08:02:17;99634.00;;;8.80;100.00
73516;BME280;61763;51.416;5.442;2022-09-28T08:04:47;99629.38;;;8.96;100.00
73516;BME280;61763;51.416;5.442;2022-09-28T08:07:13;99635.06;;;9.06;100.00
73516;BME280;61763;51.416;5.442;2022-09-28T08:09:43;99634.56;;;9.14;100.00
73516;BME280;61763;51.416;5.442;2022-09-28T08:12:10;99637.03;;;9.31;100.00
73516;BME280;61763;51.416;5.442;2022-09-28T08:14:35;99639.13;;;9.40;100.00
73516;BME280;61763;51.416;5.442;2022-09-28T08:17:05;99637.22;;;9.42;100.00
73516;BME280;61763;51.416;5.442;2022-09-28T08:19:30;99645.41;;;9.41;100.00
73516;BME280;61763;51.416;5.442;2022-09-28T08:22:19;99637.13;;;9.71;100.00
73516;BME280;61763;51.416;5.442;2022-09-28T08:24:46;99644.16;;;9.74;98.61
73516;BME280;61763;51.416;5.442;2022-09-28T08:27:13;99638.84;;;9.99;100.00
73516;BME280;61763;51.416;5.442;2022-09-28T08:29:39;99641.91;;;10.08;99.30
73516;BME280;61763;51.416;5.442;2022-09-28T08:32:05;99642.38;;;10.27;96.88
73516;BME280;61763;51.416;5.442;2022-09-28T08:34:36;99644.06;;;10.43;97.30
73516;BME280;61763;51.416;5.442;2022-09-28T08:37:03;99650.66;;;10.51;97.15
73516;BME280;61763;51.416;5.442;2022-09-28T08:39:28;99651.81;;;10.47;96.45
73516;BME280;61763;51.416;5.442;2022-09-28T08:44:43;99655.06;;;10.52;98.52
73516;BME280;61763;51.416;5.442;2022-09-28T08:47:22;99649.78;;;10.77;95.52
73516;BME280;61763;51.416;5.442;2022-09-28T08:50:12;99667.72;;;10.65;95.08
73516;BME280;61763;51.416;5.442;2022-09-28T08:52:45;99661.56;;;10.76;97.57
73516;BME280;61763;51.416;5.442;2022-09-28T08:55:25;99657.97;;;11.01;95.32
73516;BME280;61763;51.416;5.442;2022-09-28T08:58:15;99659.38;;;11.07;94.32
73516;BME280;61763;51.416;5.442;2022-09-28T09:00:49;99665.34;;;11.12;93.23
73516;BME280;61763;51.416;5.442;2022-09-28T09:03:30;99674.41;;;11.24;90.27
73516;BME280;61763;51.416;5.442;2022-09-28T09:30:16;99685.81;;;12.14;86.07
73516;BME280;61763;51.416;5.442;2022-09-28T09:39:00;99702.94;;;12.26;85.71
73516;BME280;61763;51.416;5.442;2022-09-28T09:47:53;99699.84;;;12.19;88.92
73516;BME280;61763;51.416;5.442;2022-09-28T09:50:40;99695.97;;;12.35;85.23
73516;BME280;61763;51.416;5.442;2022-09-28T09:55:48;99697.34;;;12.76;84.47
73516;BME280;61763;51.416;5.442;2022-09-28T10:00:51;99690.13;;;13.22;81.99
73516;BME280;61763;51.416;5.442;2022-09-28T10:03:27;99688.72;;;13.52;77.97
73516;BME280;61763;51.416;5.442;2022-09-28T10:06:08;99690.84;;;13.92;78.20
73516;BME280;61763;51.416;5.442;2022-09-28T10:09:09;99699.78;;;14.47;76.23
73516;BME280;61763;51.416;5.442;2022-09-28T10:11:40;99693.47;;;14.79;72.78
73516;BME280;61763;51.416;5.442;2022-09-28T10:14:18;99686.78;;;14.62;72.46
73516;BME280;61763;51.416;5.442;2022-09-28T10:16:48;99691.28;;;14.41;75.86
73516;BME280;61763;51.416;5.442;2022-09-28T10:19:16;99685.19;;;14.27;75.34
73516;BME280;61763;51.416;5.442;2022-09-28T10:21:44;99686.41;;;14.55;76.29
73516;BME280;61763;51.416;5.442;2022-09-28T10:24:20;99681.97;;;14.54;78.28
73516;BME280;61763;51.416;5.442;2022-09-28T10:26:49;99689.13;;;14.23;73.57
73516;BME280;61763;51.416;5.442;2022-09-28T10:29:24;99688.88;;;14.26;74.52
73516;BME280;61763;51.416;5.442;2022-09-28T10:31:51;99681.94;;;14.33;74.19
73516;BME280;61763;51.416;5.442;2022-09-28T10:34:24;99681.56;;;14.06;72.54
73516;BME280;61763;51.416;5.442;2022-09-28T10:36:56;99686.09;;;13.73;75.97
73516;BME280;61763;51.416;5.442;2022-09-28T10:42:05;99686.22;;;13.71;78.02
73516;BME280;61763;51.416;5.442;2022-09-28T10:44:32;99688.47;;;13.98;74.77
73516;BME280;61763;51.416;5.442;2022-09-28T10:47:04;99696.75;;;14.29;72.26
73516;BME280;61763;51.416;5.442;2022-09-28T10:49:43;99684.41;;;14.69;72.28
73516;BME280;61763;51.416;5.442;2022-09-28T10:54:56;99676.72;;;15.26;68.78
73516;BME280;61763;51.416;5.442;2022-09-28T10:57:32;99684.56;;;15.50;68.47
73516;BME280;61763;51.416;5.442;2022-09-28T10:59:57;99679.34;;;15.06;65.58
73516;BME280;61763;51.416;5.442;2022-09-28T11:02:26;99686.00;;;14.60;68.98
73516;BME280;61763;51.416;5.442;2022-09-28T11:04:56;99682.25;;;14.19;68.51
73516;BME280;61763;51.416;5.442;2022-09-28T11:07:28;99674.16;;;14.08;72.82
73516;BME280;61763;51.416;5.442;2022-09-28T11:09:55;99688.44;;;14.21;72.50
73516;BME280;61763;51.416;5.442;2022-09-28T11:12:25;99683.09;;;14.52;72.90
73516;BME280;61763;51.416;5.442;2022-09-28T11:15:02;99692.44;;;14.92;71.35
73516;BME280;61763;51.416;5.442;2022-09-28T11:20:00;99689.47;;;15.04;70.19
73516;BME280;61763;51.416;5.442;2022-09-28T11:27:42;99687.09;;;14.15;69.18
73516;BME280;61763;51.416;5.442;2022-09-28T11:30:30;99687.38;;;14.01;70.21
73516;BME280;61763;51.416;5.442;2022-09-28T11:33:04;99696.16;;;13.82;72.33
73516;BME280;61763;51.416;5.442;2022-09-28T11:35:48;99687.94;;;13.61;71.43
73516;BME280;61763;51.416;5.442;2022-09-28T11:38:47;99683.00;;;13.66;70.57
73516;BME280;61763;51.416;5.442;2022-09-28T11:46:31;99689.06;;;13.58;74.02
73516;BME280;61763;51.416;5.442;2022-09-28T11:49:09;99686.47;;;13.57;71.70
73516;BME280;61763;51.416;5.442;2022-09-28T11:51:39;99680.34;;;13.98;70.64
73516;BME280;61763;51.416;5.442;2022-09-28T11:56:49;99680.81;;;14.15;70.22
73516;BME280;61763;51.416;5.442;2022-09-28T11:59:31;99675.50;;;14.13;69.44
73516;BME280;61763;51.416;5.442;2022-09-28T12:02:26;99675.97;;;14.18;70.62
73516;BME280;61763;51.416;5.442;2022-09-28T12:11:19;99669.22;;;15.80;63.42
73516;BME280;61763;51.416;5.442;2022-09-28T12:13:39;99668.41;;;15.99;63.26
73516;BME280;61763;51.416;5.442;2022-09-28T12:16:33;99667.06;;;15.84;62.67
73516;BME280;61763;51.416;5.442;2022-09-28T12:19:28;99669.41;;;15.27;68.01
73516;BME280;61763;51.416;5.442;2022-09-28T12:21:58;99667.34;;;15.81;61.58
73516;BME280;61763;51.416;5.442;2022-09-28T12:24:29;99668.31;;;15.70;64.43
73516;BME280;61763;51.416;5.442;2022-09-28T12:27:16;99665.66;;;16.09;61.93
73516;BME280;61763;51.416;5.442;2022-09-28T12:32:34;99665.66;;;16.77;60.96
73516;BME280;61763;51.416;5.442;2022-09-28T12:35:08;99656.88;;;16.84;59.12
73516;BME280;61763;51.416;5.442;2022-09-28T12:37:54;99655.16;;;16.82;59.52
73516;BME280;61763;51.416;5.442;2022-09-28T12:45:42;99664.88;;;17.14;59.98
73516;BME280;61763;51.416;5.442;2022-09-28T12:48:29;99663.97;;;16.47;59.41
73516;BME280;61763;51.416;5.442;2022-09-28T13:00:15;99674.22;;;15.13;65.47
73516;BME280;61763;51.416;5.442;2022-09-28T13:03:11;99668.97;;;14.91;64.30
73516;BME280;61763;51.416;5.442;2022-09-28T13:09:09;99682.78;;;14.01;69.89
73516;BME280;61763;51.416;5.442;2022-09-28T13:12:32;99692.00;;;13.21;82.27
73516;BME280;61763;51.416;5.442;2022-09-28T13:15:28;99702.06;;;12.50;89.98
73516;BME280;61763;51.416;5.442;2022-09-28T13:18:03;99702.97;;;11.89;93.83
73516;BME280;61763;51.416;5.442;2022-09-28T13:20:55;99707.25;;;11.67;97.46
73516;BME280;61763;51.416;5.442;2022-09-28T13:25:55;99712.28;;;11.35;100.00
73516;BME280;61763;51.416;5.442;2022-09-28T13:28:24;99711.19;;;11.37;95.63
73516;BME280;61763;51.416;5.442;2022-09-28T13:30:51;99716.19;;;11.18;95.29
73516;BME280;61763;51.416;5.442;2022-09-28T13:33:19;99712.84;;;11.01;98.70
73516;BME280;61763;51.416;5.442;2022-09-28T13:35:47;99717.59;;;10.98;100.00
73516;BME280;61763;51.416;5.442;2022-09-28T14:00:07;99707.22;;;10.92;99.36
73516;BME280;61763;51.416;5.442;2022-09-28T14:02:44;99711.00;;;10.89;98.80
73516;BME280;61763;51.416;5.442;2022-09-28T14:13:10;99717.69;;;10.71;100.00
73516;BME280;61763;51.416;5.442;2022-09-28T14:15:39;99717.69;;;10.71;100.00
73516;BME280;61763;51.416;5.442;2022-09-28T14:18:22;99719.13;;;10.76;100.00
73516;BME280;61763;51.416;5.442;2022-09-28T14:26:24;99712.63;;;11.04;100.00
73516;BME280;61763;51.416;5.442;2022-09-28T14:31:54;99704.16;;;11.98;100.00
73516;BME280;61763;51.416;5.442;2022-09-28T14:36:55;99697.19;;;12.31;97.09
73516;BME280;61763;51.416;5.442;2022-09-28T14:39:44;99705.13;;;12.45;97.83
73516;BME280;61763;51.416;5.442;2022-09-28T14:42:28;99702.88;;;12.74;93.47
73516;BME280;61763;51.416;5.442;2022-09-28T14:50:28;99709.09;;;12.52;92.23
73516;BME280;61763;51.416;5.442;2022-09-28T14:53:17;99704.38;;;12.43;90.95
73516;BME280;61763;51.416;5.442;2022-09-28T14:55:50;99715.03;;;12.33;95.01
73516;BME280;61763;51.416;5.442;2022-09-28T14:58:26;99718.66;;;12.45;93.69
73516;BME280;61763;51.416;5.442;2022-09-28T15:01:06;99709.41;;;12.83;91.62
73516;BME280;61763;51.416;5.442;2022-09-28T15:03:37;99713.78;;;12.97;92.68
73516;BME280;61763;51.416;5.442;2022-09-28T15:06:13;99713.53;;;13.11;94.31
73516;BME280;61763;51.416;5.442;2022-09-28T15:08:40;99719.75;;;13.36;93.92
73516;BME280;61763;51.416;5.442;2022-09-28T15:11:24;99716.91;;;13.49;87.00
73516;BME280;61763;51.416;5.442;2022-09-28T15:13:50;99714.56;;;13.44;88.94
73516;BME280;61763;51.416;5.442;2022-09-28T15:16:30;99717.66;;;13.40;87.50
73516;BME280;61763;51.416;5.442;2022-09-28T15:19:15;99720.94;;;13.32;85.44
73516;BME280;61763;51.416;5.442;2022-09-28T15:21:44;99725.50;;;13.09;82.55
73516;BME280;61763;51.416;5.442;2022-09-28T15:24:43;99726.16;;;12.77;85.17
73516;BME280;61763;51.416;5.442;2022-09-28T15:27:20;99730.00;;;12.50;85.88
73516;BME280;61763;51.416;5.442;2022-09-28T15:30:01;99733.34;;;12.30;86.25
73516;BME280;61763;51.416;5.442;2022-09-28T15:32:28;99740.53;;;12.18;87.76
73516;BME280;61763;51.416;5.442;2022-09-28T15:34:58;99742.44;;;12.04;86.80
73516;BME280;61763;51.416;5.442;2022-09-28T15:37:35;99741.66;;;11.89;90.66
73516;BME280;61763;51.416;5.442;2022-09-28T15:40:11;99751.22;;;11.82;91.23
73516;BME280;61763;51.416;5.442;2022-09-28T15:42:38;99740.72;;;11.78;89.89
73516;BME280;61763;51.416;5.442;2022-09-28T15:47:40;99749.84;;;11.77;83.91
73516;BME280;61763;51.416;5.442;2022-09-28T15:50:24;99755.47;;;11.73;81.46
73516;BME280;61763;51.416;5.442;2022-09-28T15:52:59;99752.88;;;11.72;83.00
73516;BME280;61763;51.416;5.442;2022-09-28T15:55:32;99756.09;;;11.77;82.42
73516;BME280;61763;51.416;5.442;2022-09-28T15:58:16;99759.66;;;11.78;80.77
73516;BME280;61763;51.416;5.442;2022-09-28T16:00:44;99761.63;;;11.75;81.56
73516;BME280;61763;51.416;5.442;2022-09-28T16:05:42;99763.94;;;11.56;85.06
73516;BME280;61763;51.416;5.442;2022-09-28T16:08:21;99763.94;;;11.43;85.28
73516;BME280;61763;51.416;5.442;2022-09-28T16:13:23;99773.22;;;11.00;86.31
73516;BME280;61763;51.416;5.442;2022-09-28T16:15:58;99768.13;;;10.96;87.15
73516;BME280;61763;51.416;5.442;2022-09-28T16:18:26;99769.75;;;10.85;87.32